sensor_id;sensor_type;location;lat;lon;timestamp;P1;durP1;ratioP1;P2;durP2;ratioP2
39032;SDS011;24794;51.982;5.878;2023-09-30T00:00:17;11.15;;;3.50;;
39032;SDS011;24794;51.982;5.878;2023-09-30T00:01:17;8.88;;;3.70;;
39032;SDS011;24794;51.982;5.878;2023-09-30T00:02:18;9.35;;;3.15;;
39032;SDS011;24794;51.982;5.878;2023-09-30T00:03:19;11.38;;;3.40;;
39032;SDS011;24794;51.982;5.878;2023-09-30T00:04:19;8.38;;;3.55;;
39032;SDS011;24794;51.982;5.878;2023-09-30T00:05:20;10.68;;;3.70;;
39032;SDS011;24794;51.982;5.878;2023-09-30T00:06:20;10.10;;;3.47;;
39032;SDS011;24794;51.982;5.878;2023-09-30T00:07:21;11.00;;;3.90;;
39032;SDS011;24794;51.982;5.878;2023-09-30T00:08:21;8.18;;;3.45;;
39032;SDS011;24794;51.982;5.878;2023-09-30T00:09:22;10.20;;;3.50;;
39032;SDS011;24794;51.982;5.878;2023-09-30T00:10:22;9.10;;;3.20;;
39032;SDS011;24794;51.982;5.878;2023-09-30T00:11:23;9.52;;;3.60;;
39032;SDS011;24794;51.982;5.878;2023-09-30T00:12:24;8.45;;;3.22;;
39032;SDS011;24794;51.982;5.878;2023-09-30T00:13:24;8.40;;;3.17;;
39032;SDS011;24794;51.982;5.878;2023-09-30T00:14:25;10.65;;;3.92;;
39032;SDS011;24794;51.982;5.878;2023-09-30T00:15:25;10.13;;;3.58;;
39032;SDS011;24794;51.982;5.878;2023-09-30T00:16:26;10.07;;;3.60;;
39032;SDS011;24794;51.982;5.878;2023-09-30T00:17:26;9.80;;;3.53;;
39032;SDS011;24794;51.982;5.878;2023-09-30T00:18:27;12.10;;;3.08;;
39032;SDS011;24794;51.982;5.878;2023-09-30T00:19:27;9.63;;;3.40;;
39032;SDS011;24794;51.982;5.878;2023-09-30T00:20:28;10.13;;;3.33;;
39032;SDS011;24794;51.982;5.878;2023-09-30T00:21:29;10.02;;;3.60;;
39032;SDS011;24794;51.982;5.878;2023-09-30T00:22:29;10.27;;;3.40;;
39032;SDS011;24794;51.982;5.878;2023-09-30T00:23:30;9.95;;;3.65;;
39032;SDS011;24794;51.982;5.878;2023-09-30T00:24:30;11.48;;;3.30;;
39032;SDS011;24794;51.982;5.878;2023-09-30T00:25:31;8.98;;;3.22;;
39032;SDS011;24794;51.982;5.878;2023-09-30T00:26:32;7.20;;;3.30;;
39032;SDS011;24794;51.982;5.878;2023-09-30T00:27:33;9.02;;;3.53;;
39032;SDS011;24794;51.982;5.878;2023-09-30T00:28:33;8.68;;;3.53;;
39032;SDS011;24794;51.982;5.878;2023-09-30T00:29:34;8.93;;;3.40;;
39032;SDS011;24794;51.982;5.878;2023-09-30T00:30:35;7.85;;;3.38;;
39032;SDS011;24794;51.982;5.878;2023-09-30T00:31:36;11.85;;;3.35;;
39032;SDS011;24794;51.982;5.878;2023-09-30T00:32:36;7.43;;;3.22;;
39032;SDS011;24794;51.982;5.878;2023-09-30T00:33:37;8.80;;;3.72;;
39032;SDS011;24794;51.982;5.878;2023-09-30T00:34:37;7.60;;;3.20;;
39032;SDS011;24794;51.982;5.878;2023-09-30T00:35:38;10.35;;;3.50;;
39032;SDS011;24794;51.982;5.878;2023-09-30T00:36:38;9.30;;;3.35;;
39032;SDS011;24794;51.982;5.878;2023-09-30T00:37:39;11.35;;;3.92;;
39032;SDS011;24794;51.982;5.878;2023-09-30T00:38:41;8.18;;;3.58;;
39032;SDS011;24794;51.982;5.878;2023-09-30T00:39:41;10.55;;;3.38;;
39032;SDS011;24794;51.982;5.878;2023-09-30T00:40:48;9.77;;;3.58;;
39032;SDS011;24794;51.982;5.878;2023-09-30T00:41:49;6.20;;;3.00;;
39032;SDS011;24794;51.982;5.878;2023-09-30T00:42:50;9.77;;;3.67;;
39032;SDS011;24794;51.982;5.878;2023-09-30T00:43:50;8.63;;;3.67;;
39032;SDS011;24794;51.982;5.878;2023-09-30T00:44:51;11.48;;;3.65;;
39032;SDS011;24794;51.982;5.878;2023-09-30T00:46:25;10.55;;;3.80;;
39032;SDS011;24794;51.982;5.878;2023-09-30T00:47:25;10.38;;;3.50;;
39032;SDS011;24794;51.982;5.878;2023-09-30T00:48:26;8.82;;;2.97;;
39032;SDS011;24794;51.982;5.878;2023-09-30T00:49:27;7.20;;;3.28;;
39032;SDS011;24794;51.982;5.878;2023-09-30T00:50:28;8.27;;;3.63;;
39032;SDS011;24794;51.982;5.878;2023-09-30T00:51:29;10.80;;;3.67;;
39032;SDS011;24794;51.982;5.878;2023-09-30T00:52:31;7.40;;;3.10;;
39032;SDS011;24794;51.982;5.878;2023-09-30T00:53:33;8.55;;;3.60;;
39032;SDS011;24794;51.982;5.878;2023-09-30T00:54:33;9.85;;;4.10;;
39032;SDS011;24794;51.982;5.878;2023-09-30T00:55:35;10.68;;;3.92;;
39032;SDS011;24794;51.982;5.878;2023-09-30T00:56:37;10.25;;;3.80;;
39032;SDS011;24794;51.982;5.878;2023-09-30T00:57:48;8.68;;;3.13;;
39032;SDS011;24794;51.982;5.878;2023-09-30T00:58:49;8.63;;;3.50;;
39032;SDS011;24794;51.982;5.878;2023-09-30T00:59:51;8.52;;;3.42;;
39032;SDS011;24794;51.982;5.878;2023-09-30T01:00:52;8.20;;;3.70;;
39032;SDS011;24794;51.982;5.878;2023-09-30T01:01:53;9.27;;;3.53;;
39032;SDS011;24794;51.982;5.878;2023-09-30T01:02:57;10.35;;;3.58;;
39032;SDS011;24794;51.982;5.878;2023-09-30T01:04:03;11.27;;;3.35;;
39032;SDS011;24794;51.982;5.878;2023-09-30T01:05:04;8.85;;;3.50;;
39032;SDS011;24794;51.982;5.878;2023-09-30T01:06:05;8.23;;;3.42;;
39032;SDS011;24794;51.982;5.878;2023-09-30T01:07:05;7.55;;;3.40;;
39032;SDS011;24794;51.982;5.878;2023-09-30T01:08:06;12.02;;;3.75;;
39032;SDS011;24794;51.982;5.878;2023-09-30T01:09:07;11.27;;;3.63;;
39032;SDS011;24794;51.982;5.878;2023-09-30T01:10:09;11.52;;;3.95;;
39032;SDS011;24794;51.982;5.878;2023-09-30T01:11:09;9.63;;;3.15;;
39032;SDS011;24794;51.982;5.878;2023-09-30T01:12:10;11.63;;;3.50;;
39032;SDS011;24794;51.982;5.878;2023-09-30T01:13:11;10.35;;;3.50;;
39032;SDS011;24794;51.982;5.878;2023-09-30T01:14:27;10.35;;;3.83;;
39032;SDS011;24794;51.982;5.878;2023-09-30T01:15:32;9.63;;;3.83;;
39032;SDS011;24794;51.982;5.878;2023-09-30T01:16:32;10.40;;;3.40;;
39032;SDS011;24794;51.982;5.878;2023-09-30T01:17:33;8.60;;;3.75;;
39032;SDS011;24794;51.982;5.878;2023-09-30T01:18:33;11.18;;;3.35;;
39032;SDS011;24794;51.982;5.878;2023-09-30T01:19:34;9.70;;;3.42;;
39032;SDS011;24794;51.982;5.878;2023-09-30T01:20:35;9.68;;;3.17;;
39032;SDS011;24794;51.982;5.878;2023-09-30T01:21:36;7.25;;;3.42;;
39032;SDS011;24794;51.982;5.878;2023-09-30T01:22:37;8.70;;;3.42;;
39032;SDS011;24794;51.982;5.878;2023-09-30T01:23:37;8.15;;;3.40;;
39032;SDS011;24794;51.982;5.878;2023-09-30T01:24:41;7.30;;;3.50;;
39032;SDS011;24794;51.982;5.878;2023-09-30T01:25:42;8.02;;;3.78;;
39032;SDS011;24794;51.982;5.878;2023-09-30T01:26:44;9.32;;;3.55;;
39032;SDS011;24794;51.982;5.878;2023-09-30T01:27:44;8.43;;;3.45;;
39032;SDS011;24794;51.982;5.878;2023-09-30T01:28:45;8.13;;;3.25;;
39032;SDS011;24794;51.982;5.878;2023-09-30T01:29:48;7.68;;;3.88;;
39032;SDS011;24794;51.982;5.878;2023-09-30T01:30:49;7.30;;;3.53;;
39032;SDS011;24794;51.982;5.878;2023-09-30T01:31:51;6.85;;;3.33;;
39032;SDS011;24794;51.982;5.878;2023-09-30T01:32:52;10.88;;;3.75;;
39032;SDS011;24794;51.982;5.878;2023-09-30T01:33:53;7.97;;;3.40;;
39032;SDS011;24794;51.982;5.878;2023-09-30T01:34:55;11.80;;;3.55;;
39032;SDS011;24794;51.982;5.878;2023-09-30T01:35:55;9.80;;;4.18;;
39032;SDS011;24794;51.982;5.878;2023-09-30T01:36:56;8.23;;;3.38;;
39032;SDS011;24794;51.982;5.878;2023-09-30T01:37:56;10.77;;;3.85;;
39032;SDS011;24794;51.982;5.878;2023-09-30T01:38:57;11.30;;;3.80;;
39032;SDS011;24794;51.982;5.878;2023-09-30T01:39:58;10.32;;;3.60;;
39032;SDS011;24794;51.982;5.878;2023-09-30T01:40:58;7.57;;;3.53;;
39032;SDS011;24794;51.982;5.878;2023-09-30T01:41:59;9.05;;;3.40;;
39032;SDS011;24794;51.982;5.878;2023-09-30T01:42:59;7.93;;;3.45;;
39032;SDS011;24794;51.982;5.878;2023-09-30T01:44:00;8.73;;;3.72;;
39032;SDS011;24794;51.982;5.878;2023-09-30T01:45:01;9.30;;;4.20;;
39032;SDS011;24794;51.982;5.878;2023-09-30T01:46:02;9.50;;;4.03;;
39032;SDS011;24794;51.982;5.878;2023-09-30T01:47:02;11.13;;;4.28;;
39032;SDS011;24794;51.982;5.878;2023-09-30T01:48:03;9.50;;;3.80;;
39032;SDS011;24794;51.982;5.878;2023-09-30T01:49:04;8.63;;;3.85;;
39032;SDS011;24794;51.982;5.878;2023-09-30T01:50:04;7.10;;;3.58;;
39032;SDS011;24794;51.982;5.878;2023-09-30T01:51:05;8.20;;;3.90;;
39032;SDS011;24794;51.982;5.878;2023-09-30T01:52:06;12.07;;;4.15;;
39032;SDS011;24794;51.982;5.878;2023-09-30T01:53:06;7.30;;;3.60;;
39032;SDS011;24794;51.982;5.878;2023-09-30T01:54:07;7.72;;;3.72;;
39032;SDS011;24794;51.982;5.878;2023-09-30T01:55:08;10.55;;;3.85;;
39032;SDS011;24794;51.982;5.878;2023-09-30T01:56:08;8.20;;;3.65;;
39032;SDS011;24794;51.982;5.878;2023-09-30T01:57:09;9.65;;;3.83;;
39032;SDS011;24794;51.982;5.878;2023-09-30T01:58:10;10.18;;;4.13;;
39032;SDS011;24794;51.982;5.878;2023-09-30T01:59:11;9.40;;;3.67;;
39032;SDS011;24794;51.982;5.878;2023-09-30T02:00:11;9.43;;;3.90;;
39032;SDS011;24794;51.982;5.878;2023-09-30T02:01:12;10.40;;;3.67;;
39032;SDS011;24794;51.982;5.878;2023-09-30T02:02:13;7.47;;;3.50;;
39032;SDS011;24794;51.982;5.878;2023-09-30T02:03:13;7.53;;;3.78;;
39032;SDS011;24794;51.982;5.878;2023-09-30T02:04:14;9.48;;;3.83;;
39032;SDS011;24794;51.982;5.878;2023-09-30T02:05:17;7.40;;;3.50;;
39032;SDS011;24794;51.982;5.878;2023-09-30T02:06:18;10.20;;;3.78;;
39032;SDS011;24794;51.982;5.878;2023-09-30T02:07:19;10.98;;;3.97;;
39032;SDS011;24794;51.982;5.878;2023-09-30T02:08:19;9.57;;;3.70;;
39032;SDS011;24794;51.982;5.878;2023-09-30T02:09:20;10.55;;;3.53;;
39032;SDS011;24794;51.982;5.878;2023-09-30T02:10:21;9.82;;;4.10;;
39032;SDS011;24794;51.982;5.878;2023-09-30T02:11:21;7.10;;;3.50;;
39032;SDS011;24794;51.982;5.878;2023-09-30T02:12:22;8.48;;;3.72;;
39032;SDS011;24794;51.982;5.878;2023-09-30T02:13:23;9.02;;;3.65;;
39032;SDS011;24794;51.982;5.878;2023-09-30T02:14:23;13.50;;;4.20;;
39032;SDS011;24794;51.982;5.878;2023-09-30T02:15:24;10.25;;;3.80;;
39032;SDS011;24794;51.982;5.878;2023-09-30T02:16:25;10.32;;;4.20;;
39032;SDS011;24794;51.982;5.878;2023-09-30T02:17:26;10.82;;;3.92;;
39032;SDS011;24794;51.982;5.878;2023-09-30T02:18:27;9.32;;;3.97;;
39032;SDS011;24794;51.982;5.878;2023-09-30T02:19:28;13.90;;;4.57;;
39032;SDS011;24794;51.982;5.878;2023-09-30T02:20:28;9.07;;;4.10;;
39032;SDS011;24794;51.982;5.878;2023-09-30T02:21:30;10.52;;;3.45;;
39032;SDS011;24794;51.982;5.878;2023-09-30T02:22:31;11.70;;;4.10;;
39032;SDS011;24794;51.982;5.878;2023-09-30T02:23:31;8.80;;;3.60;;
39032;SDS011;24794;51.982;5.878;2023-09-30T02:24:32;12.60;;;4.35;;
39032;SDS011;24794;51.982;5.878;2023-09-30T02:25:32;10.55;;;3.95;;
39032;SDS011;24794;51.982;5.878;2023-09-30T02:26:33;8.80;;;3.92;;
39032;SDS011;24794;51.982;5.878;2023-09-30T02:27:33;9.52;;;4.03;;
39032;SDS011;24794;51.982;5.878;2023-09-30T02:28:34;6.50;;;3.47;;
39032;SDS011;24794;51.982;5.878;2023-09-30T02:29:34;8.63;;;3.72;;
39032;SDS011;24794;51.982;5.878;2023-09-30T02:30:35;9.60;;;3.95;;
39032;SDS011;24794;51.982;5.878;2023-09-30T02:31:36;9.02;;;3.88;;
39032;SDS011;24794;51.982;5.878;2023-09-30T02:32:38;9.50;;;4.20;;
39032;SDS011;24794;51.982;5.878;2023-09-30T02:33:39;9.55;;;4.25;;
39032;SDS011;24794;51.982;5.878;2023-09-30T02:34:40;8.90;;;3.45;;
39032;SDS011;24794;51.982;5.878;2023-09-30T02:35:46;9.60;;;3.83;;
39032;SDS011;24794;51.982;5.878;2023-09-30T02:36:47;8.02;;;4.03;;
39032;SDS011;24794;51.982;5.878;2023-09-30T02:37:48;8.27;;;4.00;;
39032;SDS011;24794;51.982;5.878;2023-09-30T02:38:50;10.40;;;3.83;;
39032;SDS011;24794;51.982;5.878;2023-09-30T02:39:51;8.15;;;4.00;;
39032;SDS011;24794;51.982;5.878;2023-09-30T02:40:51;8.65;;;4.10;;
39032;SDS011;24794;51.982;5.878;2023-09-30T02:41:52;9.30;;;3.92;;
39032;SDS011;24794;51.982;5.878;2023-09-30T02:42:52;10.60;;;4.30;;
39032;SDS011;24794;51.982;5.878;2023-09-30T02:43:53;8.40;;;3.75;;
39032;SDS011;24794;51.982;5.878;2023-09-30T02:44:53;7.70;;;3.85;;
39032;SDS011;24794;51.982;5.878;2023-09-30T02:45:54;11.35;;;4.45;;
39032;SDS011;24794;51.982;5.878;2023-09-30T02:46:54;10.20;;;3.78;;
39032;SDS011;24794;51.982;5.878;2023-09-30T02:47:55;9.30;;;4.20;;
39032;SDS011;24794;51.982;5.878;2023-09-30T02:48:55;11.23;;;4.15;;
39032;SDS011;24794;51.982;5.878;2023-09-30T02:49:56;11.90;;;4.43;;
39032;SDS011;24794;51.982;5.878;2023-09-30T02:50:57;8.70;;;3.92;;
39032;SDS011;24794;51.982;5.878;2023-09-30T02:51:58;7.78;;;3.97;;
39032;SDS011;24794;51.982;5.878;2023-09-30T02:52:58;9.13;;;3.97;;
39032;SDS011;24794;51.982;5.878;2023-09-30T02:53:59;8.45;;;4.03;;
39032;SDS011;24794;51.982;5.878;2023-09-30T02:54:59;8.63;;;3.83;;
39032;SDS011;24794;51.982;5.878;2023-09-30T02:56:00;10.05;;;3.92;;
39032;SDS011;24794;51.982;5.878;2023-09-30T02:57:01;9.15;;;3.92;;
39032;SDS011;24794;51.982;5.878;2023-09-30T02:58:03;7.47;;;4.18;;
39032;SDS011;24794;51.982;5.878;2023-09-30T02:59:04;9.05;;;4.00;;
39032;SDS011;24794;51.982;5.878;2023-09-30T03:00:06;9.10;;;4.50;;
39032;SDS011;24794;51.982;5.878;2023-09-30T03:01:25;8.68;;;4.07;;
39032;SDS011;24794;51.982;5.878;2023-09-30T03:02:26;8.40;;;4.10;;
39032;SDS011;24794;51.982;5.878;2023-09-30T03:03:27;7.78;;;4.13;;
39032;SDS011;24794;51.982;5.878;2023-09-30T03:04:28;7.95;;;3.90;;
39032;SDS011;24794;51.982;5.878;2023-09-30T03:05:28;10.63;;;4.00;;
39032;SDS011;24794;51.982;5.878;2023-09-30T03:06:33;10.48;;;4.28;;
39032;SDS011;24794;51.982;5.878;2023-09-30T03:07:36;8.23;;;4.30;;
39032;SDS011;24794;51.982;5.878;2023-09-30T03:08:38;9.13;;;3.95;;
39032;SDS011;24794;51.982;5.878;2023-09-30T03:09:38;9.23;;;4.38;;
39032;SDS011;24794;51.982;5.878;2023-09-30T03:10:39;7.40;;;4.07;;
39032;SDS011;24794;51.982;5.878;2023-09-30T03:11:40;9.55;;;4.38;;
39032;SDS011;24794;51.982;5.878;2023-09-30T03:12:42;9.95;;;4.00;;
39032;SDS011;24794;51.982;5.878;2023-09-30T03:13:43;8.88;;;4.45;;
39032;SDS011;24794;51.982;5.878;2023-09-30T03:14:43;7.38;;;3.78;;
39032;SDS011;24794;51.982;5.878;2023-09-30T03:15:45;11.25;;;4.13;;
39032;SDS011;24794;51.982;5.878;2023-09-30T03:16:46;8.70;;;4.57;;
39032;SDS011;24794;51.982;5.878;2023-09-30T03:17:46;9.40;;;4.30;;
39032;SDS011;24794;51.982;5.878;2023-09-30T03:18:48;9.70;;;4.18;;
39032;SDS011;24794;51.982;5.878;2023-09-30T03:19:49;10.73;;;4.70;;
39032;SDS011;24794;51.982;5.878;2023-09-30T03:20:50;11.20;;;4.47;;
39032;SDS011;24794;51.982;5.878;2023-09-30T03:21:50;10.38;;;4.50;;
39032;SDS011;24794;51.982;5.878;2023-09-30T03:22:51;8.48;;;4.50;;
39032;SDS011;24794;51.982;5.878;2023-09-30T03:23:52;8.55;;;4.18;;
39032;SDS011;24794;51.982;5.878;2023-09-30T03:24:56;10.50;;;4.28;;
39032;SDS011;24794;51.982;5.878;2023-09-30T03:25:57;9.30;;;4.25;;
39032;SDS011;24794;51.982;5.878;2023-09-30T03:26:58;6.97;;;4.18;;
39032;SDS011;24794;51.982;5.878;2023-09-30T03:27:59;10.60;;;4.82;;
39032;SDS011;24794;51.982;5.878;2023-09-30T03:28:59;8.18;;;4.30;;
39032;SDS011;24794;51.982;5.878;2023-09-30T03:30:00;10.23;;;4.80;;
39032;SDS011;24794;51.982;5.878;2023-09-30T03:31:01;9.23;;;4.78;;
39032;SDS011;24794;51.982;5.878;2023-09-30T03:32:03;10.18;;;4.75;;
39032;SDS011;24794;51.982;5.878;2023-09-30T03:33:04;8.20;;;4.35;;
39032;SDS011;24794;51.982;5.878;2023-09-30T03:34:05;10.10;;;4.60;;
39032;SDS011;24794;51.982;5.878;2023-09-30T03:35:06;8.43;;;4.35;;
39032;SDS011;24794;51.982;5.878;2023-09-30T03:36:10;9.93;;;4.80;;
39032;SDS011;24794;51.982;5.878;2023-09-30T03:37:11;11.98;;;5.00;;
39032;SDS011;24794;51.982;5.878;2023-09-30T03:38:12;9.68;;;4.53;;
39032;SDS011;24794;51.982;5.878;2023-09-30T03:39:13;10.30;;;4.75;;
39032;SDS011;24794;51.982;5.878;2023-09-30T03:40:15;9.98;;;4.70;;
39032;SDS011;24794;51.982;5.878;2023-09-30T03:41:19;7.65;;;4.35;;
39032;SDS011;24794;51.982;5.878;2023-09-30T03:42:19;10.95;;;5.07;;
39032;SDS011;24794;51.982;5.878;2023-09-30T03:43:23;8.27;;;4.75;;
39032;SDS011;24794;51.982;5.878;2023-09-30T03:44:25;8.38;;;4.78;;
39032;SDS011;24794;51.982;5.878;2023-09-30T03:45:25;10.18;;;5.00;;
39032;SDS011;24794;51.982;5.878;2023-09-30T03:46:26;8.75;;;4.80;;
39032;SDS011;24794;51.982;5.878;2023-09-30T03:47:26;7.60;;;4.63;;
39032;SDS011;24794;51.982;5.878;2023-09-30T03:48:27;8.55;;;4.63;;
39032;SDS011;24794;51.982;5.878;2023-09-30T03:49:28;11.70;;;5.40;;
39032;SDS011;24794;51.982;5.878;2023-09-30T03:50:28;13.40;;;4.97;;
39032;SDS011;24794;51.982;5.878;2023-09-30T03:51:30;9.65;;;4.65;;
39032;SDS011;24794;51.982;5.878;2023-09-30T03:52:32;7.50;;;4.78;;
39032;SDS011;24794;51.982;5.878;2023-09-30T03:53:33;9.15;;;5.18;;
39032;SDS011;24794;51.982;5.878;2023-09-30T03:54:34;9.40;;;5.20;;
39032;SDS011;24794;51.982;5.878;2023-09-30T03:55:35;11.90;;;4.93;;
39032;SDS011;24794;51.982;5.878;2023-09-30T03:56:37;9.55;;;4.35;;
39032;SDS011;24794;51.982;5.878;2023-09-30T03:57:38;8.13;;;4.90;;
39032;SDS011;24794;51.982;5.878;2023-09-30T03:58:39;8.75;;;4.25;;
39032;SDS011;24794;51.982;5.878;2023-09-30T03:59:41;7.35;;;4.18;;
39032;SDS011;24794;51.982;5.878;2023-09-30T04:00:41;9.63;;;4.55;;
39032;SDS011;24794;51.982;5.878;2023-09-30T04:01:42;6.38;;;4.20;;
39032;SDS011;24794;51.982;5.878;2023-09-30T04:02:42;9.05;;;4.32;;
39032;SDS011;24794;51.982;5.878;2023-09-30T04:03:43;11.23;;;4.57;;
39032;SDS011;24794;51.982;5.878;2023-09-30T04:04:44;7.55;;;4.53;;
39032;SDS011;24794;51.982;5.878;2023-09-30T04:05:46;10.02;;;4.65;;
39032;SDS011;24794;51.982;5.878;2023-09-30T04:06:47;11.38;;;5.18;;
39032;SDS011;24794;51.982;5.878;2023-09-30T04:07:48;8.82;;;5.07;;
39032;SDS011;24794;51.982;5.878;2023-09-30T04:08:48;9.00;;;5.18;;
39032;SDS011;24794;51.982;5.878;2023-09-30T04:09:50;11.95;;;5.43;;
39032;SDS011;24794;51.982;5.878;2023-09-30T04:10:50;9.85;;;4.70;;
39032;SDS011;24794;51.982;5.878;2023-09-30T04:11:51;10.52;;;4.90;;
39032;SDS011;24794;51.982;5.878;2023-09-30T04:12:51;11.38;;;5.00;;
39032;SDS011;24794;51.982;5.878;2023-09-30T04:13:52;13.13;;;5.32;;
39032;SDS011;24794;51.982;5.878;2023-09-30T04:14:53;9.15;;;5.13;;
39032;SDS011;24794;51.982;5.878;2023-09-30T04:15:53;9.10;;;5.10;;
39032;SDS011;24794;51.982;5.878;2023-09-30T04:16:54;8.07;;;4.97;;
39032;SDS011;24794;51.982;5.878;2023-09-30T04:17:54;8.80;;;5.13;;
39032;SDS011;24794;51.982;5.878;2023-09-30T04:18:55;8.52;;;5.05;;
39032;SDS011;24794;51.982;5.878;2023-09-30T04:19:55;8.40;;;4.93;;
39032;SDS011;24794;51.982;5.878;2023-09-30T04:20:56;10.30;;;4.97;;
39032;SDS011;24794;51.982;5.878;2023-09-30T04:21:57;10.15;;;5.13;;
39032;SDS011;24794;51.982;5.878;2023-09-30T04:22:57;11.05;;;5.05;;
39032;SDS011;24794;51.982;5.878;2023-09-30T04:23:58;8.18;;;4.82;;
39032;SDS011;24794;51.982;5.878;2023-09-30T04:24:58;9.10;;;4.88;;
39032;SDS011;24794;51.982;5.878;2023-09-30T04:25:59;8.88;;;5.18;;
39032;SDS011;24794;51.982;5.878;2023-09-30T04:26:59;7.40;;;4.53;;
39032;SDS011;24794;51.982;5.878;2023-09-30T04:28:03;9.82;;;5.13;;
39032;SDS011;24794;51.982;5.878;2023-09-30T04:29:04;10.63;;;5.25;;
39032;SDS011;24794;51.982;5.878;2023-09-30T04:30:05;8.25;;;5.25;;
39032;SDS011;24794;51.982;5.878;2023-09-30T04:31:08;11.32;;;5.55;;
39032;SDS011;24794;51.982;5.878;2023-09-30T04:32:09;8.30;;;4.65;;
39032;SDS011;24794;51.982;5.878;2023-09-30T04:33:10;8.98;;;5.45;;
39032;SDS011;24794;51.982;5.878;2023-09-30T04:34:12;8.38;;;5.25;;
39032;SDS011;24794;51.982;5.878;2023-09-30T04:35:13;9.25;;;5.47;;
39032;SDS011;24794;51.982;5.878;2023-09-30T04:36:15;9.05;;;5.35;;
39032;SDS011;24794;51.982;5.878;2023-09-30T04:37:15;10.35;;;5.90;;
39032;SDS011;24794;51.982;5.878;2023-09-30T04:38:16;11.20;;;5.47;;
39032;SDS011;24794;51.982;5.878;2023-09-30T04:39:16;8.88;;;5.35;;
39032;SDS011;24794;51.982;5.878;2023-09-30T04:40:18;11.20;;;5.22;;
39032;SDS011;24794;51.982;5.878;2023-09-30T04:41:21;10.15;;;4.88;;
39032;SDS011;24794;51.982;5.878;2023-09-30T04:42:22;9.93;;;5.75;;
39032;SDS011;24794;51.982;5.878;2023-09-30T04:43:25;11.20;;;5.50;;
39032;SDS011;24794;51.982;5.878;2023-09-30T04:44:29;11.80;;;5.15;;
39032;SDS011;24794;51.982;5.878;2023-09-30T04:45:31;11.57;;;5.32;;
39032;SDS011;24794;51.982;5.878;2023-09-30T04:46:32;8.73;;;5.43;;
39032;SDS011;24794;51.982;5.878;2023-09-30T04:47:33;8.23;;;5.15;;
39032;SDS011;24794;51.982;5.878;2023-09-30T04:48:34;8.55;;;5.20;;
39032;SDS011;24794;51.982;5.878;2023-09-30T04:49:35;11.38;;;5.53;;
39032;SDS011;24794;51.982;5.878;2023-09-30T04:50:35;9.00;;;5.45;;
39032;SDS011;24794;51.982;5.878;2023-09-30T04:51:38;9.45;;;5.22;;
39032;SDS011;24794;51.982;5.878;2023-09-30T04:52:39;11.77;;;5.75;;
39032;SDS011;24794;51.982;5.878;2023-09-30T04:53:40;10.20;;;5.80;;
39032;SDS011;24794;51.982;5.878;2023-09-30T04:54:41;9.65;;;5.28;;
39032;SDS011;24794;51.982;5.878;2023-09-30T04:55:41;11.85;;;5.70;;
39032;SDS011;24794;51.982;5.878;2023-09-30T04:56:42;10.15;;;6.03;;
39032;SDS011;24794;51.982;5.878;2023-09-30T04:57:43;8.43;;;5.57;;
39032;SDS011;24794;51.982;5.878;2023-09-30T04:58:45;10.52;;;5.95;;
39032;SDS011;24794;51.982;5.878;2023-09-30T04:59:47;9.95;;;6.15;;
39032;SDS011;24794;51.982;5.878;2023-09-30T05:00:47;9.23;;;5.43;;
39032;SDS011;24794;51.982;5.878;2023-09-30T05:01:47;9.90;;;5.55;;
39032;SDS011;24794;51.982;5.878;2023-09-30T05:02:48;11.60;;;5.55;;
39032;SDS011;24794;51.982;5.878;2023-09-30T05:03:49;10.27;;;5.63;;
39032;SDS011;24794;51.982;5.878;2023-09-30T05:04:49;10.57;;;5.68;;
39032;SDS011;24794;51.982;5.878;2023-09-30T05:05:51;9.63;;;5.70;;
39032;SDS011;24794;51.982;5.878;2023-09-30T05:06:53;10.77;;;5.78;;
39032;SDS011;24794;51.982;5.878;2023-09-30T05:07:54;11.25;;;5.85;;
39032;SDS011;24794;51.982;5.878;2023-09-30T05:08:55;11.57;;;5.65;;
39032;SDS011;24794;51.982;5.878;2023-09-30T05:09:55;11.20;;;5.70;;
39032;SDS011;24794;51.982;5.878;2023-09-30T05:10:56;10.60;;;6.78;;
39032;SDS011;24794;51.982;5.878;2023-09-30T05:11:57;10.38;;;5.60;;
39032;SDS011;24794;51.982;5.878;2023-09-30T05:12:57;9.95;;;5.65;;
39032;SDS011;24794;51.982;5.878;2023-09-30T05:13:58;9.15;;;5.60;;
39032;SDS011;24794;51.982;5.878;2023-09-30T05:14:59;10.25;;;5.95;;
39032;SDS011;24794;51.982;5.878;2023-09-30T05:15:59;12.35;;;5.93;;
39032;SDS011;24794;51.982;5.878;2023-09-30T05:17:00;10.75;;;5.97;;
39032;SDS011;24794;51.982;5.878;2023-09-30T05:18:01;10.77;;;6.10;;
39032;SDS011;24794;51.982;5.878;2023-09-30T05:19:02;8.80;;;5.68;;
39032;SDS011;24794;51.982;5.878;2023-09-30T05:20:03;11.05;;;5.75;;
39032;SDS011;24794;51.982;5.878;2023-09-30T05:21:08;11.68;;;6.30;;
39032;SDS011;24794;51.982;5.878;2023-09-30T05:22:08;8.73;;;5.32;;
39032;SDS011;24794;51.982;5.878;2023-09-30T05:23:09;11.23;;;6.20;;
39032;SDS011;24794;51.982;5.878;2023-09-30T05:24:12;12.98;;;6.00;;
39032;SDS011;24794;51.982;5.878;2023-09-30T05:25:13;11.50;;;6.10;;
39032;SDS011;24794;51.982;5.878;2023-09-30T05:26:18;10.98;;;5.70;;
39032;SDS011;24794;51.982;5.878;2023-09-30T05:27:18;9.70;;;5.80;;
39032;SDS011;24794;51.982;5.878;2023-09-30T05:28:20;10.13;;;6.00;;
39032;SDS011;24794;51.982;5.878;2023-09-30T05:29:20;9.63;;;5.78;;
39032;SDS011;24794;51.982;5.878;2023-09-30T05:30:22;10.50;;;6.13;;
39032;SDS011;24794;51.982;5.878;2023-09-30T05:31:22;8.95;;;5.40;;
39032;SDS011;24794;51.982;5.878;2023-09-30T05:32:23;10.55;;;5.78;;
39032;SDS011;24794;51.982;5.878;2023-09-30T05:33:23;9.65;;;6.50;;
39032;SDS011;24794;51.982;5.878;2023-09-30T05:34:24;14.32;;;5.90;;
39032;SDS011;24794;51.982;5.878;2023-09-30T05:35:24;8.45;;;5.40;;
39032;SDS011;24794;51.982;5.878;2023-09-30T05:36:25;10.73;;;5.80;;
39032;SDS011;24794;51.982;5.878;2023-09-30T05:37:25;8.07;;;5.35;;
39032;SDS011;24794;51.982;5.878;2023-09-30T05:38:26;9.80;;;5.60;;
39032;SDS011;24794;51.982;5.878;2023-09-30T05:39:26;11.32;;;6.38;;
39032;SDS011;24794;51.982;5.878;2023-09-30T05:40:28;9.52;;;5.85;;
39032;SDS011;24794;51.982;5.878;2023-09-30T05:41:30;9.63;;;5.82;;
39032;SDS011;24794;51.982;5.878;2023-09-30T05:42:31;11.25;;;6.47;;
39032;SDS011;24794;51.982;5.878;2023-09-30T05:43:32;8.98;;;6.22;;
39032;SDS011;24794;51.982;5.878;2023-09-30T05:44:32;11.85;;;6.63;;
39032;SDS011;24794;51.982;5.878;2023-09-30T05:45:33;8.63;;;5.72;;
39032;SDS011;24794;51.982;5.878;2023-09-30T05:46:36;9.70;;;5.70;;
39032;SDS011;24794;51.982;5.878;2023-09-30T05:47:38;10.90;;;5.80;;
39032;SDS011;24794;51.982;5.878;2023-09-30T05:48:39;10.50;;;6.05;;
39032;SDS011;24794;51.982;5.878;2023-09-30T05:49:41;10.93;;;6.45;;
39032;SDS011;24794;51.982;5.878;2023-09-30T05:50:41;8.73;;;5.40;;
39032;SDS011;24794;51.982;5.878;2023-09-30T05:51:43;9.38;;;6.10;;
39032;SDS011;24794;51.982;5.878;2023-09-30T05:52:44;9.10;;;5.72;;
39032;SDS011;24794;51.982;5.878;2023-09-30T05:53:45;12.55;;;6.43;;
39032;SDS011;24794;51.982;5.878;2023-09-30T05:54:48;9.20;;;5.95;;
39032;SDS011;24794;51.982;5.878;2023-09-30T05:55:49;9.68;;;6.20;;
39032;SDS011;24794;51.982;5.878;2023-09-30T05:56:50;11.45;;;6.18;;
39032;SDS011;24794;51.982;5.878;2023-09-30T05:57:51;11.13;;;6.55;;
39032;SDS011;24794;51.982;5.878;2023-09-30T05:58:54;10.00;;;5.93;;
39032;SDS011;24794;51.982;5.878;2023-09-30T05:59:56;12.43;;;5.85;;
39032;SDS011;24794;51.982;5.878;2023-09-30T06:00:56;8.93;;;5.80;;
39032;SDS011;24794;51.982;5.878;2023-09-30T06:01:57;12.07;;;6.15;;
39032;SDS011;24794;51.982;5.878;2023-09-30T06:02:57;9.93;;;6.30;;
39032;SDS011;24794;51.982;5.878;2023-09-30T06:03:58;10.38;;;6.43;;
39032;SDS011;24794;51.982;5.878;2023-09-30T06:05:00;9.65;;;5.70;;
39032;SDS011;24794;51.982;5.878;2023-09-30T06:06:00;8.85;;;5.72;;
39032;SDS011;24794;51.982;5.878;2023-09-30T06:07:01;11.38;;;6.03;;